DAL304 KATL-CYVR
Flight info
| Callsign | DAL304 |
|---|---|
| Flight time | N/A |
| Altitude | 38000 |
| Route | PENCL2 JAACE DCT BNA DCT ROTTN/N0489F400 DCT KATES DCT GILTE DCT DPR DCT LEWIT DCT BOOTH CANUC6 |
| Aircraft | MD11/H-SDE1E2E3FGHIJ2J3J4J5M1RWXY/LB1D1 |
Departure
| Time | 2026-05-08 02:06 |
|---|---|
| Airport | Hartsfield Jackson Atlanta International Airport (KATL) |
Arrival
| Time | N/A |
|---|---|
| Airport | Vancouver International Airport (CYVR) |
| Time | Latitude | Longitude | Altitude | Speed | Heading |
|---|---|---|---|---|---|
| 2026-05-08 01:31 | 33.63863 | -84.42043 | 1042 ft | 0 kts | 90° |
| 2026-05-08 01:52 | 33.63864 | -84.42058 | 1042 ft | 4 kts | 90° |
| 2026-05-08 01:52 | 33.63864 | -84.42090 | 1041 ft | 4 kts | 92° |
| 2026-05-08 01:53 | 33.63867 | -84.42122 | 1044 ft | 4 kts | 110° |
| 2026-05-08 01:53 | 33.63880 | -84.42149 | 1045 ft | 4 kts | 141° |
| 2026-05-08 01:53 | 33.63901 | -84.42161 | 1043 ft | 2 kts | 179° |
| 2026-05-08 01:53 | 33.63907 | -84.42161 | 1043 ft | 0 kts | 180° |
| 2026-05-08 01:58 | 33.63894 | -84.42161 | 1044 ft | 5 kts | 180° |
| 2026-05-08 01:58 | 33.63880 | -84.42167 | 1016 ft | 2 kts | 218° |
| 2026-05-08 01:58 | 33.63877 | -84.42228 | 1043 ft | 10 kts | 288° |
| 2026-05-08 01:58 | 33.63933 | -84.42245 | 1043 ft | 13 kts | 360° |
| 2026-05-08 01:59 | 33.64059 | -84.42243 | 1043 ft | 20 kts | 0° |
| 2026-05-08 01:59 | 33.64193 | -84.42242 | 1043 ft | 18 kts | 0° |
| 2026-05-08 01:59 | 33.64313 | -84.42239 | 1043 ft | 16 kts | 359° |
| 2026-05-08 01:59 | 33.64420 | -84.42238 | 1043 ft | 16 kts | 1° |
| 2026-05-08 02:00 | 33.64549 | -84.42237 | 1042 ft | 21 kts | 360° |
| 2026-05-08 02:00 | 33.64534 | -84.42236 | 1042 ft | 0 kts | 358° |
| 2026-05-08 02:00 | 33.64540 | -84.42231 | 1042 ft | 1 kts | 31° |
| 2026-05-08 02:00 | 33.64541 | -84.42218 | 1042 ft | 2 kts | 81° |
| 2026-05-08 02:01 | 33.64543 | -84.42157 | 1042 ft | 11 kts | 90° |
| 2026-05-08 02:01 | 33.64542 | -84.42053 | 1042 ft | 13 kts | 90° |
| 2026-05-08 02:01 | 33.64543 | -84.41945 | 1043 ft | 15 kts | 89° |
| 2026-05-08 02:01 | 33.64545 | -84.41544 | 1043 ft | 5 kts | 90° |
| 2026-05-08 02:02 | 33.64543 | -84.41445 | 1043 ft | 15 kts | 91° |
| 2026-05-08 02:02 | 33.64541 | -84.41323 | 1043 ft | 14 kts | 90° |
| 2026-05-08 02:02 | 33.64545 | -84.41191 | 1043 ft | 19 kts | 89° |
| 2026-05-08 02:02 | 33.64543 | -84.41061 | 1043 ft | 13 kts | 90° |
| 2026-05-08 02:03 | 33.64543 | -84.40966 | 1043 ft | 10 kts | 90° |
| 2026-05-08 02:03 | 33.64542 | -84.40887 | 1042 ft | 10 kts | 95° |
| 2026-05-08 02:03 | 33.64516 | -84.40780 | 1042 ft | 14 kts | 107° |
| 2026-05-08 02:03 | 33.64512 | -84.40672 | 1043 ft | 14 kts | 89° |
| 2026-05-08 02:04 | 33.64542 | -84.40590 | 1042 ft | 9 kts | 38° |
| 2026-05-08 02:04 | 33.64580 | -84.40575 | 1042 ft | 6 kts | 2° |
| 2026-05-08 02:04 | 33.64644 | -84.40580 | 1040 ft | 9 kts | 342° |
| 2026-05-08 02:04 | 33.64669 | -84.40603 | 1040 ft | 2 kts | 304° |
| 2026-05-08 02:05 | 33.64673 | -84.40618 | 1040 ft | 1 kts | 282° |
| 2026-05-08 02:05 | 33.64674 | -84.40624 | 1040 ft | 7 kts | 280° |
| 2026-05-08 02:05 | 33.64678 | -84.41043 | 1043 ft | 97 kts | 270° |
| 2026-05-08 02:05 | 33.64683 | -84.42179 | 1074 ft | 168 kts | 269° |
| 2026-05-08 02:06 | 33.64665 | -84.43703 | 1585 ft | 194 kts | 272° |
| 2026-05-08 02:06 | 33.64683 | -84.45367 | 2430 ft | 204 kts | 278° |
| 2026-05-08 02:06 | 33.65121 | -84.47002 | 3268 ft | 210 kts | 297° |
| 2026-05-08 02:06 | 33.65814 | -84.48606 | 3869 ft | 221 kts | 291° |
| 2026-05-08 02:07 | 33.66422 | -84.50360 | 4435 ft | 231 kts | 288° |
| 2026-05-08 02:07 | 33.66973 | -84.52153 | 5069 ft | 234 kts | 287° |
| 2026-05-08 02:07 | 33.67644 | -84.53997 | 5210 ft | 248 kts | 296° |
| 2026-05-08 02:07 | 33.68921 | -84.55448 | 5568 ft | 260 kts | 331° |
| 2026-05-08 02:08 | 33.70698 | -84.55953 | 6810 ft | 272 kts | 347° |
| 2026-05-08 02:08 | 33.72602 | -84.56090 | 7886 ft | 278 kts | 348° |
| 2026-05-08 02:08 | 33.74546 | -84.56277 | 8893 ft | 280 kts | 346° |
| 2026-05-08 02:08 | 33.76472 | -84.56635 | 9932 ft | 279 kts | 339° |
| 2026-05-08 02:09 | 33.78422 | -84.57220 | 10300 ft | 305 kts | 336° |
| 2026-05-08 02:09 | 33.80585 | -84.57950 | 10448 ft | 341 kts | 337° |
| 2026-05-08 02:09 | 33.82927 | -84.58706 | 11184 ft | 353 kts | 338° |
| 2026-05-08 02:09 | 33.85320 | -84.59441 | 12148 ft | 358 kts | 338° |
| 2026-05-08 02:10 | 33.87755 | -84.60174 | 13106 ft | 362 kts | 336° |
| 2026-05-08 02:10 | 33.90029 | -84.61343 | 13907 ft | 350 kts | 319° |
| 2026-05-08 02:10 | 33.91940 | -84.63132 | 14701 ft | 347 kts | 311° |
| 2026-05-08 02:10 | 33.93713 | -84.65053 | 15550 ft | 348 kts | 310° |
| 2026-05-08 02:11 | 33.94941 | -84.66370 | 16088 ft | 351 kts | 310° |
| 2026-05-08 02:11 | 33.97426 | -84.68905 | 17139 ft | 356 kts | 311° |
| 2026-05-08 02:11 | 33.99365 | -84.70777 | 17920 ft | 360 kts | 311° |
| 2026-05-08 02:11 | 34.01351 | -84.72632 | 18618 ft | 363 kts | 312° |
| 2026-05-08 02:12 | 34.02719 | -84.73889 | 19003 ft | 367 kts | 312° |
| 2026-05-08 02:12 | 34.04765 | -84.75750 | 19599 ft | 371 kts | 313° |
| 2026-05-08 02:12 | 34.06820 | -84.77606 | 20165 ft | 376 kts | 313° |
| 2026-05-08 02:12 | 34.08924 | -84.79500 | 20720 ft | 380 kts | 313° |
| 2026-05-08 02:13 | 34.11057 | -84.81416 | 21344 ft | 383 kts | 313° |
| 2026-05-08 02:13 | 34.13204 | -84.83343 | 21990 ft | 386 kts | 313° |
| 2026-05-08 02:13 | 34.15364 | -84.85285 | 22597 ft | 390 kts | 313° |
| 2026-05-08 02:13 | 34.17553 | -84.87255 | 23193 ft | 393 kts | 313° |
| 2026-05-08 02:14 | 34.19758 | -84.89240 | 23778 ft | 397 kts | 313° |
| 2026-05-08 02:14 | 34.21984 | -84.91247 | 24300 ft | 401 kts | 313° |
| 2026-05-08 02:14 | 34.24223 | -84.93265 | 24856 ft | 404 kts | 312° |
| 2026-05-08 02:14 | 34.26491 | -84.95311 | 25403 ft | 408 kts | 312° |
| 2026-05-08 02:15 | 34.28769 | -84.97369 | 25941 ft | 411 kts | 312° |
| 2026-05-08 02:15 | 34.31070 | -84.99447 | 26492 ft | 415 kts | 312° |
| 2026-05-08 02:15 | 34.33394 | -85.01549 | 27026 ft | 419 kts | 312° |
| 2026-05-08 02:15 | 34.35740 | -85.03672 | 27561 ft | 422 kts | 312° |
| 2026-05-08 02:16 | 34.38103 | -85.05811 | 28154 ft | 425 kts | 311° |
| 2026-05-08 02:16 | 34.40467 | -85.07947 | 28881 ft | 425 kts | 311° |
| 2026-05-08 02:16 | 34.42844 | -85.10100 | 29409 ft | 428 kts | 311° |
| 2026-05-08 02:16 | 34.45239 | -85.12276 | 29914 ft | 432 kts | 311° |
| 2026-05-08 02:17 | 34.47651 | -85.14469 | 30339 ft | 435 kts | 311° |
| 2026-05-08 02:17 | 34.50087 | -85.16685 | 30692 ft | 439 kts | 311° |
| 2026-05-08 02:17 | 34.52510 | -85.18891 | 31050 ft | 441 kts | 311° |
| 2026-05-08 02:17 | 34.54965 | -85.21130 | 31525 ft | 442 kts | 311° |
| 2026-05-08 02:18 | 34.57419 | -85.23373 | 31950 ft | 442 kts | 311° |
| 2026-05-08 02:18 | 34.59877 | -85.25619 | 32379 ft | 442 kts | 310° |
| 2026-05-08 02:18 | 34.62329 | -85.27860 | 32812 ft | 442 kts | 310° |
| 2026-05-08 02:18 | 34.64790 | -85.30108 | 33287 ft | 442 kts | 310° |
| 2026-05-08 02:19 | 34.67241 | -85.32346 | 33751 ft | 441 kts | 310° |
| 2026-05-08 02:19 | 34.69695 | -85.34589 | 34110 ft | 441 kts | 310° |
| 2026-05-08 02:19 | 34.72145 | -85.36830 | 34521 ft | 439 kts | 309° |
| 2026-05-08 02:19 | 34.74577 | -85.39051 | 34966 ft | 436 kts | 309° |
| 2026-05-08 02:20 | 34.76985 | -85.41253 | 35417 ft | 432 kts | 309° |
| 2026-05-08 02:20 | 34.79376 | -85.43441 | 35879 ft | 427 kts | 309° |
| 2026-05-08 02:20 | 34.81735 | -85.45600 | 36322 ft | 423 kts | 309° |
| 2026-05-08 02:20 | 34.84081 | -85.47754 | 36711 ft | 421 kts | 309° |
| 2026-05-08 02:21 | 34.86413 | -85.49896 | 37095 ft | 418 kts | 309° |
| 2026-05-08 02:21 | 34.88718 | -85.52016 | 37471 ft | 414 kts | 309° |
| 2026-05-08 02:21 | 34.91009 | -85.54126 | 37854 ft | 411 kts | 309° |
| 2026-05-08 02:21 | 34.93288 | -85.56231 | 38000 ft | 411 kts | 308° |
| 2026-05-08 02:22 | 34.97831 | -85.60427 | 38030 ft | 409 kts | 308° |
| 2026-05-08 02:22 | 35.02360 | -85.64617 | 38019 ft | 409 kts | 309° |
| 2026-05-08 02:23 | 35.06891 | -85.68815 | 38021 ft | 409 kts | 308° |
| 2026-05-08 02:23 | 35.11431 | -85.73017 | 38040 ft | 409 kts | 308° |
| 2026-05-08 02:24 | 35.15948 | -85.77203 | 38041 ft | 409 kts | 308° |
| 2026-05-08 02:24 | 35.20463 | -85.81389 | 38052 ft | 403 kts | 308° |
| 2026-05-08 02:25 | 35.24917 | -85.85555 | 38043 ft | 403 kts | 308° |
| 2026-05-08 02:25 | 35.34140 | -85.94178 | 38054 ft | 403 kts | 308° |
| 2026-05-08 02:26 | 35.43061 | -86.02517 | 38061 ft | 403 kts | 308° |
| 2026-05-08 02:26 | 35.51931 | -86.10828 | 38066 ft | 401 kts | 307° |
| 2026-05-08 02:27 | 35.60677 | -86.19140 | 38084 ft | 400 kts | 306° |
| 2026-05-08 02:27 | 35.69541 | -86.27544 | 38064 ft | 400 kts | 306° |
| 2026-05-08 02:28 | 35.78311 | -86.35837 | 38072 ft | 400 kts | 306° |
| 2026-05-08 02:28 | 35.87139 | -86.44213 | 38066 ft | 400 kts | 306° |
| 2026-05-08 02:29 | 35.95936 | -86.52616 | 38100 ft | 400 kts | 306° |
| 2026-05-08 02:29 | 36.04748 | -86.61024 | 38102 ft | 400 kts | 306° |
| 2026-05-08 02:30 | 36.13545 | -86.69438 | 38102 ft | 400 kts | 306° |
| 2026-05-08 02:30 | 36.22344 | -86.77880 | 38107 ft | 400 kts | 306° |
| 2026-05-08 02:31 | 36.26516 | -86.82279 | 38085 ft | 386 kts | 300° |
| 2026-05-08 02:31 | 36.30235 | -86.87032 | 38068 ft | 383 kts | 298° |
| 2026-05-08 02:31 | 36.37577 | -86.96592 | 38082 ft | 384 kts | 298° |
| 2026-05-08 02:32 | 36.44972 | -87.06134 | 38084 ft | 383 kts | 298° |
| 2026-05-08 02:32 | 36.52312 | -87.15613 | 38090 ft | 379 kts | 298° |
| 2026-05-08 02:33 | 36.59602 | -87.25071 | 38106 ft | 378 kts | 298° |
| 2026-05-08 02:33 | 36.66875 | -87.34531 | 38115 ft | 378 kts | 298° |
| 2026-05-08 02:34 | 36.74130 | -87.43991 | 38090 ft | 376 kts | 298° |
| 2026-05-08 02:34 | 36.81361 | -87.53449 | 38109 ft | 376 kts | 298° |
| 2026-05-08 02:35 | 36.88547 | -87.62930 | 38107 ft | 376 kts | 298° |
| 2026-05-08 02:35 | 36.95752 | -87.72423 | 38115 ft | 376 kts | 298° |
| 2026-05-08 02:36 | 37.02987 | -87.81974 | 38090 ft | 379 kts | 298° |
| 2026-05-08 02:36 | 37.10221 | -87.91545 | 38093 ft | 378 kts | 298° |
| 2026-05-08 02:37 | 37.17450 | -88.01139 | 38122 ft | 378 kts | 298° |
| 2026-05-08 02:37 | 37.24683 | -88.10781 | 38136 ft | 384 kts | 299° |
| 2026-05-08 02:38 | 37.32018 | -88.20573 | 38122 ft | 388 kts | 300° |
| 2026-05-08 02:38 | 37.39421 | -88.30484 | 38112 ft | 389 kts | 299° |
| 2026-05-08 02:39 | 37.46779 | -88.40431 | 38187 ft | 389 kts | 300° |
| 2026-05-08 02:39 | 37.54240 | -88.50508 | 38128 ft | 397 kts | 301° |
| 2026-05-08 02:40 | 37.69037 | -88.70535 | 38135 ft | 397 kts | 301° |
| 2026-05-08 02:40 | 37.84125 | -88.91101 | 38140 ft | 400 kts | 302° |
| 2026-05-08 02:41 | 37.99215 | -89.11837 | 38123 ft | 402 kts | 302° |
| 2026-05-08 02:41 | 38.14411 | -89.32860 | 38116 ft | 404 kts | 302° |
| 2026-05-08 02:42 | 38.29683 | -89.54088 | 38111 ft | 408 kts | 303° |
| 2026-05-08 02:42 | 38.44958 | -89.75463 | 38108 ft | 407 kts | 302° |
| 2026-05-08 02:43 | 38.60045 | -89.96791 | 38109 ft | 407 kts | 302° |
| 2026-05-08 02:43 | 38.75179 | -90.18268 | 38129 ft | 405 kts | 303° |
| 2026-05-08 02:44 | 38.90353 | -90.39943 | 38162 ft | 405 kts | 303° |
| 2026-05-08 02:44 | 39.05193 | -90.61287 | 38097 ft | 403 kts | 303° |
| 2026-05-08 02:45 | 39.20058 | -90.82894 | 38089 ft | 402 kts | 302° |
| 2026-05-08 02:45 | 39.34888 | -91.04520 | 38120 ft | 402 kts | 302° |
| 2026-05-08 02:46 | 39.49641 | -91.26185 | 38189 ft | 401 kts | 302° |
| 2026-05-08 02:46 | 39.57022 | -91.37080 | 38070 ft | 402 kts | 302° |
| 2026-05-08 02:46 | 39.64371 | -91.47982 | 38069 ft | 402 kts | 302° |
| 2026-05-08 02:47 | 39.79026 | -91.69876 | 38051 ft | 402 kts | 302° |
| 2026-05-08 02:47 | 39.93713 | -91.91902 | 38027 ft | 402 kts | 302° |
| 2026-05-08 02:48 | 40.08334 | -92.13989 | 38037 ft | 403 kts | 302° |
| 2026-05-08 02:48 | 40.22903 | -92.36222 | 38045 ft | 403 kts | 302° |
| 2026-05-08 02:49 | 40.37426 | -92.58498 | 38030 ft | 403 kts | 302° |
| 2026-05-08 02:49 | 40.51318 | -92.79940 | 38008 ft | 404 kts | 302° |
| 2026-05-08 02:50 | 40.65828 | -93.02496 | 38018 ft | 404 kts | 302° |
| 2026-05-08 02:50 | 40.79023 | -93.23242 | 37991 ft | 406 kts | 302° |
| 2026-05-08 02:51 | 40.93516 | -93.46101 | 37990 ft | 405 kts | 302° |
| 2026-05-08 02:51 | 41.07929 | -93.69001 | 38022 ft | 405 kts | 302° |
| 2026-05-08 02:52 | 41.20370 | -93.93595 | 37985 ft | 403 kts | 297° |
| 2026-05-08 02:52 | 41.32251 | -94.17849 | 37981 ft | 404 kts | 297° |
| 2026-05-08 02:53 | 41.44191 | -94.42413 | 37976 ft | 406 kts | 297° |
| 2026-05-08 02:53 | 41.55734 | -94.66382 | 37973 ft | 409 kts | 297° |
| 2026-05-08 02:54 | 41.67914 | -94.91948 | 37998 ft | 409 kts | 298° |
| 2026-05-08 02:54 | 41.80034 | -95.17504 | 37970 ft | 411 kts | 298° |
| 2026-05-08 02:55 | 41.97936 | -95.55652 | 37963 ft | 412 kts | 298° |
| 2026-05-08 02:56 | 42.09408 | -95.80493 | 37966 ft | 411 kts | 298° |
| 2026-05-08 02:56 | 42.21415 | -96.06568 | 37955 ft | 411 kts | 298° |
| 2026-05-08 02:57 | 42.33439 | -96.32915 | 37962 ft | 411 kts | 298° |
| 2026-05-08 02:57 | 42.45144 | -96.58854 | 37935 ft | 412 kts | 298° |
| 2026-05-08 02:58 | 42.57908 | -96.82457 | 37937 ft | 415 kts | 308° |
| 2026-05-08 02:58 | 42.72876 | -97.05384 | 37945 ft | 416 kts | 307° |
| 2026-05-08 02:59 | 42.86870 | -97.27106 | 37959 ft | 416 kts | 307° |
| 2026-05-08 02:59 | 43.02054 | -97.50858 | 37981 ft | 416 kts | 308° |
| 2026-05-08 03:00 | 43.16500 | -97.73739 | 37976 ft | 417 kts | 307° |
| 2026-05-08 03:00 | 43.27117 | -97.90593 | 37960 ft | 417 kts | 308° |
| 2026-05-08 03:01 | 43.41951 | -98.14311 | 37953 ft | 418 kts | 308° |
| 2026-05-08 03:01 | 43.57074 | -98.38693 | 37952 ft | 419 kts | 308° |
| 2026-05-08 03:02 | 43.72145 | -98.63304 | 37961 ft | 419 kts | 308° |
| 2026-05-08 03:02 | 43.87185 | -98.87967 | 37952 ft | 420 kts | 308° |
| 2026-05-08 03:03 | 44.02162 | -99.12740 | 37942 ft | 420 kts | 308° |
| 2026-05-08 03:03 | 44.17103 | -99.37737 | 37951 ft | 420 kts | 308° |
| 2026-05-08 03:04 | 44.32036 | -99.62916 | 37950 ft | 421 kts | 308° |
| 2026-05-08 03:04 | 44.46948 | -99.88237 | 37954 ft | 423 kts | 308° |
| 2026-05-08 03:05 | 44.61864 | -100.13793 | 37951 ft | 423 kts | 308° |
| 2026-05-08 03:05 | 44.68889 | -100.26748 | 37906 ft | 421 kts | 296° |
| 2026-05-08 03:05 | 44.73202 | -100.42454 | 37942 ft | 426 kts | 291° |
| 2026-05-08 03:06 | 44.81586 | -100.73457 | 37972 ft | 429 kts | 291° |
| 2026-05-08 03:06 | 44.90064 | -101.04923 | 37976 ft | 429 kts | 291° |
| 2026-05-08 03:07 | 44.98454 | -101.36498 | 37941 ft | 429 kts | 290° |
| 2026-05-08 03:07 | 45.07218 | -101.67898 | 37969 ft | 432 kts | 295° |
| 2026-05-08 03:08 | 45.17181 | -101.98851 | 37950 ft | 431 kts | 294° |
| 2026-05-08 03:08 | 45.27053 | -102.30039 | 37960 ft | 434 kts | 294° |
| 2026-05-08 03:09 | 45.36791 | -102.61179 | 37958 ft | 436 kts | 294° |
| 2026-05-08 03:09 | 45.46432 | -102.92615 | 37929 ft | 436 kts | 294° |
| 2026-05-08 03:10 | 45.56152 | -103.24471 | 37939 ft | 438 kts | 293° |
| 2026-05-08 03:10 | 45.65820 | -103.56563 | 37937 ft | 440 kts | 293° |
| 2026-05-08 03:11 | 45.75351 | -103.88829 | 37927 ft | 441 kts | 293° |
| 2026-05-08 03:11 | 45.84875 | -104.21288 | 37941 ft | 442 kts | 292° |
| 2026-05-08 03:12 | 45.93935 | -104.52550 | 37918 ft | 441 kts | 292° |
| 2026-05-08 03:12 | 46.02542 | -104.82623 | 37908 ft | 440 kts | 292° |
| 2026-05-08 03:13 | 46.11699 | -105.15285 | 37920 ft | 440 kts | 292° |
| 2026-05-08 03:13 | 46.20815 | -105.47984 | 37915 ft | 438 kts | 292° |
| 2026-05-08 03:14 | 46.29813 | -105.80704 | 37911 ft | 438 kts | 292° |
| 2026-05-08 03:14 | 46.38651 | -106.13547 | 37911 ft | 438 kts | 292° |
| 2026-05-08 03:15 | 46.45566 | -106.39370 | 37918 ft | 435 kts | 292° |
| 2026-05-08 03:15 | 46.49550 | -106.54369 | 37922 ft | 435 kts | 292° |
| 2026-05-08 03:16 | 46.53231 | -106.68314 | 37924 ft | 435 kts | 292° |
| 2026-05-08 03:16 | 46.57525 | -106.84695 | 37916 ft | 434 kts | 292° |
| 2026-05-08 03:17 | 46.61794 | -107.01089 | 37922 ft | 433 kts | 292° |
| 2026-05-08 03:17 | 46.65991 | -107.17519 | 37923 ft | 433 kts | 292° |
| 2026-05-08 03:18 | 46.70191 | -107.33973 | 37910 ft | 431 kts | 292° |
| 2026-05-08 03:18 | 46.74358 | -107.50316 | 37910 ft | 430 kts | 292° |
| 2026-05-08 03:19 | 46.78506 | -107.66704 | 37910 ft | 431 kts | 292° |
| 2026-05-08 03:19 | 46.82624 | -107.83099 | 37925 ft | 429 kts | 292° |
| 2026-05-08 03:20 | 46.86702 | -107.99447 | 37922 ft | 428 kts | 292° |
| 2026-05-08 03:20 | 46.90753 | -108.15805 | 37923 ft | 428 kts | 291° |
| 2026-05-08 03:21 | 46.94729 | -108.32204 | 37897 ft | 426 kts | 291° |
| 2026-05-08 03:21 | 46.96707 | -108.40362 | 38485 ft | 424 kts | 291° |
| 2026-05-08 03:21 | 46.98681 | -108.48473 | 38953 ft | 424 kts | 291° |
| 2026-05-08 03:21 | 47.00658 | -108.56607 | 39349 ft | 425 kts | 291° |
| 2026-05-08 03:22 | 47.02640 | -108.64794 | 39737 ft | 426 kts | 291° |
| 2026-05-08 03:22 | 47.04615 | -108.72988 | 39904 ft | 429 kts | 291° |
| 2026-05-08 03:22 | 47.06601 | -108.81258 | 39877 ft | 429 kts | 291° |
| 2026-05-08 03:23 | 47.10524 | -108.97699 | 39928 ft | 426 kts | 291° |
| 2026-05-08 03:23 | 47.14418 | -109.14135 | 39936 ft | 426 kts | 291° |
| 2026-05-08 03:24 | 47.18313 | -109.30567 | 39935 ft | 426 kts | 291° |
| 2026-05-08 03:24 | 47.22319 | -109.46796 | 39938 ft | 424 kts | 291° |
| 2026-05-08 03:25 | 47.26353 | -109.63124 | 39945 ft | 424 kts | 291° |
| 2026-05-08 03:25 | 47.30370 | -109.79480 | 39952 ft | 424 kts | 293° |
| 2026-05-08 03:26 | 47.34435 | -109.95834 | 39945 ft | 425 kts | 292° |
| 2026-05-08 03:26 | 47.38344 | -110.12026 | 39944 ft | 426 kts | 292° |
| 2026-05-08 03:27 | 47.42291 | -110.28497 | 39948 ft | 425 kts | 292° |
| 2026-05-08 03:27 | 47.46190 | -110.44989 | 39946 ft | 425 kts | 291° |
| 2026-05-08 03:28 | 47.50048 | -110.61534 | 39941 ft | 426 kts | 291° |
| 2026-05-08 03:28 | 47.53984 | -110.78061 | 39941 ft | 426 kts | 293° |
| 2026-05-08 03:29 | 47.57865 | -110.94677 | 39970 ft | 427 kts | 291° |
| 2026-05-08 03:29 | 47.61658 | -111.11400 | 39981 ft | 428 kts | 291° |
| 2026-05-08 03:30 | 47.66938 | -111.34552 | 39983 ft | 427 kts | 291° |
| 2026-05-08 03:31 | 47.74403 | -111.67879 | 39925 ft | 426 kts | 290° |
| 2026-05-08 03:32 | 47.79763 | -111.92054 | 39926 ft | 425 kts | 291° |
| 2026-05-08 03:32 | 47.83159 | -112.07461 | 39928 ft | 424 kts | 290° |
| 2026-05-08 03:33 | 47.86788 | -112.24046 | 39942 ft | 424 kts | 290° |
| 2026-05-08 03:33 | 47.90436 | -112.40855 | 39950 ft | 423 kts | 290° |
| 2026-05-08 03:34 | 47.94000 | -112.57408 | 39975 ft | 423 kts | 290° |
| 2026-05-08 03:34 | 47.97572 | -112.74143 | 39972 ft | 423 kts | 290° |
| 2026-05-08 03:35 | 48.01016 | -112.90722 | 39993 ft | 423 kts | 290° |
| 2026-05-08 03:35 | 48.04529 | -113.07484 | 40011 ft | 423 kts | 290° |
| 2026-05-08 03:36 | 48.07887 | -113.23602 | 40014 ft | 422 kts | 290° |
| 2026-05-08 03:36 | 48.11364 | -113.40424 | 40007 ft | 423 kts | 290° |
| 2026-05-08 03:37 | 48.14816 | -113.57271 | 40020 ft | 422 kts | 290° |
| 2026-05-08 03:37 | 48.18227 | -113.74077 | 39986 ft | 422 kts | 290° |